Morgenster — PHMY — position and weather

sailwx.info

Track history (hours):
 
Tides and Currents Weather Stations Pressure Air Temp Water Temp Dewpoint Dewpoint Depression Visibility Wind Speed Wind Dir Waves Ship Positions

Morgenster

Last reported at 2019-Apr-25 05:03 UTC. Time now 2019-Apr-25 11:50 UTC.
Position N 51°44' E 002°12'.

Length 38 m; draft 2.4 m.

Type: Sailing vessel. MMSI: 245136000.

Date/timePositionNaut miles runAvg speedWind from/ knotsBaromVisibWave heightAir tempDewpointWater temp
2019-Apr-25 05:03N 51°44' E 002°12'1 8.7
2019-Apr-25 04:58N 51°43' E 002°11'4 8.1
2019-Apr-25 04:28N 51°41' E 002°05'3 7.0
2019-Apr-25 04:00N 51°39' E 002°01'4 7.5
2019-Apr-25 03:30N 51°37' E 001°56'3 6.7
2019-Apr-25 03:00N 51°35' E 001°52'2 4.6
2019-Apr-25 02:30N 51°33' E 001°49'1 2.9
2019-Apr-25 02:00N 51°33' E 001°47'2 4.4
2019-Apr-25 01:30N 51°32' E 001°44'3 5.4
2019-Apr-25 01:00N 51°31' E 001°40'3 5.6
2019-Apr-25 00:30N 51°30' E 001°36'3 5.2
2019-Apr-25 00:00N 51°29' E 001°32'3 5.7
2019-Apr-24 23:30N 51°29' E 001°27'3 6.1
2019-Apr-24 23:00N 51°29' E 001°22'3 6.7
2019-Apr-24 22:30N 51°29' E 001°17'4 7.5
2019-Apr-24 22:00N 51°29' E 001°11'4 7.3
2019-Apr-24 21:30N 51°29' E 001°05'4 7.6
2019-Apr-24 21:00N 51°29' E 000°59'4 8.4
2019-Apr-24 20:30N 51°29' E 000°52'4 8.7
2019-Apr-24 20:00N 51°29' E 000°45'5 9.2
2019-Apr-24 19:30N 51°30' E 000°38'4 8.9
2019-Apr-24 19:01N 51°30' E 000°31'4 8.3
2019-Apr-24 18:31N 51°27' E 000°26'4 8.6
2019-Apr-24 18:01N 51°28' E 000°19'4 7.6
2019-Apr-24 17:30N 51°29' E 000°13'3 6.1
2019-Apr-24 17:00N 51°31' E 000°09'3 5.5
2019-Apr-24 16:30N 51°30' E 000°05'0 0.7
2019-Apr-24 15:54N 51°30' E 000°05'0 0.0
2019-Apr-24 15:27N 51°30' E 000°05'0 0.0
2019-Apr-24 14:57N 51°30' E 000°05'0 0.0
2019-Apr-24 14:18N 51°30' E 000°05'0 0.0
2019-Apr-24 14:00N 51°30' E 000°05'0 0.0
2019-Apr-24 13:24N 51°30' E 000°05'0 0.0
2019-Apr-24 12:48N 51°30' E 000°05'0 0.0
2019-Apr-24 12:18N 51°30' E 000°05'0 0.0
2019-Apr-24 11:54N 51°30' E 000°05'0 0.0
2019-Apr-24 11:30N 51°30' E 000°05'0 0.0
2019-Apr-24 10:54N 51°30' E 000°05'0 0.0
2019-Apr-24 10:30N 51°30' E 000°05'0 0.0
2019-Apr-24 09:57N 51°30' E 000°05'0 0.0
2019-Apr-24 09:30N 51°30' E 000°05'0 0.0
2019-Apr-24 08:57N 51°30' E 000°05'0 0.0
2019-Apr-24 08:24N 51°30' E 000°05'0 0.0
2019-Apr-24 07:57N 51°30' E 000°05'0 0.0
2019-Apr-24 07:30N 51°30' E 000°05'0 0.0
2019-Apr-24 07:00N 51°30' E 000°05'0 0.0
2019-Apr-24 06:27N 51°30' E 000°05'0 0.0
2019-Apr-24 05:57N 51°30' E 000°05'0 0.0
2019-Apr-24 05:18N 51°30' E 000°05'0 0.0
2019-Apr-24 05:00N 51°30' E 000°05'0 0.0
2019-Apr-24 04:30N 51°30' E 000°05'0 0.0
2019-Apr-24 04:00N 51°30' E 000°05'0 0.0
2019-Apr-24 03:27N 51°30' E 000°05'0 0.0
2019-Apr-24 02:54N 51°30' E 000°05'0 0.0
2019-Apr-24 02:30N 51°30' E 000°05'0 0.0
2019-Apr-24 02:00N 51°30' E 000°05'0 0.0
2019-Apr-24 01:27N 51°30' E 000°05'0 0.0
2019-Apr-24 01:00N 51°30' E 000°05'0 0.0
2019-Apr-24 00:24N 51°30' E 000°05'0 0.0
2019-Apr-24 00:00N 51°30' E 000°05'0 0.0
2019-Apr-23 23:30N 51°30' E 000°05'0 0.0
2019-Apr-23 22:57N 51°30' E 000°05'0 0.0
2019-Apr-23 22:24N 51°30' E 000°05'0 0.0
2019-Apr-23 21:57N 51°30' E 000°05'0 0.0
2019-Apr-23 21:30N 51°30' E 000°05'0 0.0
2019-Apr-23 21:00N 51°30' E 000°05'0 0.0
2019-Apr-23 20:27N 51°30' E 000°05'0 0.0
2019-Apr-23 19:57N 51°30' E 000°05'0 0.0
2019-Apr-23 19:30N 51°30' E 000°05'0 0.0
2019-Apr-23 19:00N 51°30' E 000°05'0 0.0
2019-Apr-23 18:24N 51°30' E 000°05'0 0.0
2019-Apr-23 17:54N 51°30' E 000°05'0 0.0
2019-Apr-23 17:24N 51°30' E 000°05'0 0.0
2019-Apr-23 17:00N 51°30' E 000°05'0 0.0
2019-Apr-23 16:21N 51°30' E 000°05'0 0.0
2019-Apr-23 16:00N 51°30' E 000°05'0 0.0
2019-Apr-23 15:30N 51°30' E 000°05'0 0.0
2019-Apr-23 15:00N 51°30' E 000°05'2 4.7
2019-Apr-23 14:30N 51°30' E 000°01'2 3.4
2019-Apr-23 14:00N 51°30' W 000°02'1 1.9
2019-Apr-23 13:31N 51°30' W 000°03'2 4.1
2019-Apr-23 12:58N 51°30' E 000°01'4 7.8
2019-Apr-23 12:30N 51°31' E 000°07'4 7.6
2019-Apr-23 12:00N 51°29' E 000°12'4 7.3
2019-Apr-23 11:30N 51°28' E 000°18'3 5.9
2019-Apr-23 11:00N 51°27' E 000°22'3 6.1
2019-Apr-23 10:30N 51°28' E 000°27'3 5.6
2019-Apr-23 10:00N 51°30' E 000°30'2 4.7
2019-Apr-23 09:30N 51°30' E 000°34'2 4.5
2019-Apr-23 09:00N 51°30' E 000°37'2 3.8
2019-Apr-23 08:30N 51°30' E 000°40'1 2.9
2019-Apr-23 08:00N 51°31' E 000°43'0 0.8
2019-Apr-23 07:30N 51°31' E 000°43'0 0.0
2019-Apr-23 07:00N 51°31' E 000°43'0 0.0
2019-Apr-23 06:30N 51°31' E 000°43'0 0.0
2019-Apr-23 06:00N 51°31' E 000°43'0 0.3
2019-Apr-23 05:30N 51°30' E 000°44'2 4.0
2019-Apr-23 05:00N 51°30' E 000°47'2 4.4
2019-Apr-23 04:30N 51°30' E 000°50'2 3.7
2019-Apr-23 04:00N 51°30' E 000°53'2 3.9
2019-Apr-23 03:30N 51°29' E 000°56'2 5.0
2019-Apr-23 03:00N 51°30' E 001°00'3 5.2
2019-Apr-23 02:30N 51°30' E 001°04'3 5.5
2019-Apr-23 02:00N 51°29' E 001°09'3 6.6
2019-Apr-23 01:30N 51°29' E 001°14'3 6.6
2019-Apr-23 01:00N 51°29' E 001°19'4 7.3
2019-Apr-23 00:30N 51°29' E 001°25'3 6.9
2019-Apr-23 00:00N 51°31' E 001°30'3 6.9
2019-Apr-22 23:30N 51°32' E 001°35'4 7.2
2019-Apr-22 23:00N 51°34' E 001°40'4 7.3
2019-Apr-22 22:30N 51°35' E 001°46'4 7.3
2019-Apr-22 22:01N 51°37' E 001°51'3 5.9
2019-Apr-22 21:31N 51°39' E 001°55'3 5.6
2019-Apr-22 21:00N 51°40' E 001°59'3 5.6
2019-Apr-22 20:31N 51°41' E 002°03'3 5.3
2019-Apr-22 20:00N 51°41' E 002°07'3 4.8
2019-Apr-22 19:22N 51°43' E 002°12'2 5.1
2019-Apr-22 18:58N 51°44' E 002°14'3 5.0
2019-Apr-22 18:27N 51°46' E 002°17'31 4.9
2019-Apr-22 12:00N 52°07' E 002°54'10 7.2
2019-Apr-22 10:40N 52°14' E 003°05'4 8.4
2019-Apr-22 10:13N 52°17' E 003°09'2 7.8
2019-Apr-22 09:57N 52°19' E 003°12'6 7.0
2019-Apr-22 09:04N 52°23' E 003°20'2 5.5
2019-Apr-22 08:39N 52°24' E 003°23'6 4.6
2019-Apr-22 07:23N 52°27' E 003°31'6 3.9
2019-Apr-22 05:53N 52°30' E 003°39'3 3.9
2019-Apr-22 05:14N 52°31' E 003°43'1 3.6
2019-Apr-22 04:53N 52°32' E 003°45'2 4.0
2019-Apr-22 04:25N 52°33' E 003°47'4 4.5
2019-Apr-22 03:29N 52°34' E 003°54'4 5.4
2019-Apr-22 02:41N 52°36' E 004°01'2 5.9
2019-Apr-22 02:17N 52°36' E 004°04'2 6.0
2019-Apr-22 02:00N 52°37' E 004°07'7 5.7
2019-Apr-22 00:48N 52°40' E 004°17'2 4.9
2019-Apr-22 00:28N 52°41' E 004°19'4 5.5
2019-Apr-21 23:49N 52°44' E 004°23'2 6.0
2019-Apr-21 23:30N 52°45' E 004°25'3 5.8
2019-Apr-21 23:01N 52°47' E 004°28'3 5.1
2019-Apr-21 22:31N 52°49' E 004°31'2 4.7
2019-Apr-21 22:00N 52°51' E 004°34'2 4.7
2019-Apr-21 21:30N 52°52' E 004°37'2 3.7
2019-Apr-21 21:00N 52°54' E 004°39'2 3.2
2019-Apr-21 20:31N 52°55' E 004°40'1 2.5
2019-Apr-21 20:01N 52°56' E 004°41'1 2.1
2019-Apr-21 19:31N 52°57' E 004°42'1 1.7
2019-Apr-21 19:01N 52°58' E 004°43'1 1.6
2019-Apr-21 18:31N 52°58' E 004°44'1 1.8
2019-Apr-21 18:01N 52°58' E 004°46'1 1.4
2019-Apr-21 17:31N 52°58' E 004°47'1 1.3
2019-Apr-21 17:00N 52°58' E 004°47'1 1.5
2019-Apr-21 16:30N 52°57' E 004°47'0 0.7
2019-Apr-21 16:01N 52°57' E 004°47'1 1.0
2019-Apr-21 15:29N 52°57' E 004°46'0 0.0
2019-Apr-21 14:59N 52°57' E 004°46'0 0.0
2019-Apr-21 14:29N 52°57' E 004°46'0 0.0
2019-Apr-21 13:59N 52°57' E 004°46'0 0.0
2019-Apr-21 13:29N 52°57' E 004°46'0 0.0
2019-Apr-21 12:59N 52°57' E 004°46'0 0.0
2019-Apr-21 12:29N 52°57' E 004°46'0 0.0
2019-Apr-21 11:59N 52°57' E 004°46'0 0.0
2019-Apr-21 11:29N 52°57' E 004°46'0 0.0
2019-Apr-21 10:59N 52°57' E 004°46'0 0.0
2019-Apr-21 10:29N 52°57' E 004°46'0 0.0
2019-Apr-21 09:59N 52°57' E 004°46'0 0.0
2019-Apr-21 09:29N 52°57' E 004°46'0 0.0
2019-Apr-21 08:59N 52°57' E 004°46'0 0.0
2019-Apr-21 08:29N 52°57' E 004°46'0 0.0
2019-Apr-21 07:59N 52°57' E 004°46'0 0.0
2019-Apr-21 07:29N 52°57' E 004°46'0 0.0
2019-Apr-21 06:59N 52°57' E 004°46'0 0.0
2019-Apr-21 06:29N 52°57' E 004°46'0 0.0
2019-Apr-21 05:59N 52°57' E 004°46'0 0.0
2019-Apr-21 05:29N 52°57' E 004°46'0 0.0
2019-Apr-21 04:59N 52°57' E 004°46'0 0.0
2019-Apr-21 04:29N 52°57' E 004°46'0 0.0
2019-Apr-21 03:59N 52°57' E 004°46'0 0.0
2019-Apr-21 03:29N 52°57' E 004°46'0 0.0
2019-Apr-21 02:59N 52°57' E 004°46'0 0.0
2019-Apr-21 02:29N 52°57' E 004°46'0 0.0
2019-Apr-21 01:56N 52°57' E 004°46'0 0.0
2019-Apr-21 01:29N 52°57' E 004°46'0 0.0
2019-Apr-21 00:59N 52°57' E 004°46'0 0.0
2019-Apr-21 00:29N 52°57' E 004°46'0 0.0
2019-Apr-20 23:59N 52°57' E 004°46'0 0.0
2019-Apr-20 23:29N 52°57' E 004°46'0 0.0
2019-Apr-20 22:59N 52°57' E 004°46'0 0.0
2019-Apr-20 22:29N 52°57' E 004°46'0 0.0
2019-Apr-20 21:59N 52°57' E 004°46'0 0.0
2019-Apr-20 21:29N 52°57' E 004°46'0 0.0
2019-Apr-20 20:56N 52°57' E 004°46'0 0.0
2019-Apr-20 20:29N 52°57' E 004°46'0 0.0
2019-Apr-20 19:59N 52°57' E 004°46'0 0.0
2019-Apr-20 19:29N 52°57' E 004°46'0 0.0
2019-Apr-20 18:59N 52°57' E 004°46'0 0.0
2019-Apr-20 18:29N 52°57' E 004°46'0 0.0
2019-Apr-20 17:59N 52°57' E 004°46'0 0.0
2019-Apr-20 17:29N 52°57' E 004°46'0 0.0
2019-Apr-20 16:59N 52°57' E 004°46'0 0.0
2019-Apr-20 16:29N 52°57' E 004°46'0 0.0
2019-Apr-20 15:59N 52°57' E 004°46'0 0.0
2019-Apr-20 15:29N 52°57' E 004°46'0 0.0
2019-Apr-20 14:59N 52°57' E 004°46'0 0.0
2019-Apr-20 14:29N 52°57' E 004°46'0 0.0
2019-Apr-20 14:00N 52°57' E 004°46'0 0.0
2019-Apr-20 13:30N 52°57' E 004°46'0 0.0
2019-Apr-20 13:01N 52°57' E 004°46'0 0.0
2019-Apr-20 12:30N 52°57' E 004°46'0 0.0
2019-Apr-20 12:00N 52°57' E 004°46'0 0.0
2019-Apr-20 11:30N 52°57' E 004°46'0 0.0
2019-Apr-20 11:00N 52°57' E 004°46'0 0.0
2019-Apr-20 10:30N 52°57' E 004°46'0 0.0
2019-Apr-20 10:00N 52°57' E 004°46'0 0.0
2019-Apr-20 09:30N 52°57' E 004°46'0 0.0
2019-Apr-20 09:00N 52°57' E 004°46'0 0.0
2019-Apr-20 08:30N 52°57' E 004°46'0 0.0
2019-Apr-20 08:01N 52°57' E 004°46'0 0.0
2019-Apr-20 07:30N 52°57' E 004°46'0 0.0
2019-Apr-20 07:00N 52°57' E 004°46'0 0.0
2019-Apr-20 06:30N 52°57' E 004°46'0 0.0
2019-Apr-20 06:00N 52°57' E 004°46'0 0.0
2019-Apr-20 05:30N 52°57' E 004°46'0 0.0
2019-Apr-20 05:00N 52°57' E 004°46'0 0.0
2019-Apr-20 04:30N 52°57' E 004°46'0 0.0
2019-Apr-20 04:01N 52°57' E 004°46'0 0.0
2019-Apr-20 03:30N 52°57' E 004°46'0 0.0
2019-Apr-20 03:00N 52°57' E 004°46'0 0.0
2019-Apr-20 02:31N 52°57' E 004°46'0 0.0
2019-Apr-20 02:00N 52°57' E 004°46'0 0.0
2019-Apr-20 01:30N 52°57' E 004°46'0 0.0
2019-Apr-20 01:00N 52°57' E 004°46'0 0.0
2019-Apr-20 00:30N 52°57' E 004°46'0 0.0
2019-Apr-20 00:00N 52°57' E 004°46'0 0.0
2019-Apr-19 23:31N 52°57' E 004°46'0 0.0
2019-Apr-19 23:00N 52°57' E 004°46'0 0.0
2019-Apr-19 22:30N 52°57' E 004°46'0 0.0
2019-Apr-19 22:00N 52°57' E 004°46'0 0.0
2019-Apr-19 21:30N 52°57' E 004°46'0 0.0
2019-Apr-19 21:01N 52°57' E 004°46'0 0.0
2019-Apr-19 20:30N 52°57' E 004°46'0 0.0
2019-Apr-19 20:00N 52°57' E 004°46'0 0.0
2019-Apr-19 19:30N 52°57' E 004°46'0 0.0
2019-Apr-19 19:00N 52°57' E 004°46'0 0.0
2019-Apr-19 18:31N 52°57' E 004°46'0 0.0
2019-Apr-19 18:00N 52°57' E 004°46'0 0.0
2019-Apr-19 17:30N 52°57' E 004°46'0 0.0
2019-Apr-19 17:00N 52°57' E 004°46'0 0.0
2019-Apr-19 16:30N 52°57' E 004°46'0 0.0
2019-Apr-19 16:00N 52°57' E 004°46'0 0.0
2019-Apr-19 15:31N 52°57' E 004°46'0 0.0
2019-Apr-19 15:00N 52°57' E 004°46'0 0.0
2019-Apr-19 14:30N 52°57' E 004°46'0 0.0
2019-Apr-19 14:00N 52°57' E 004°46'0 0.0
2019-Apr-19 13:30N 52°57' E 004°46'0 0.0
2019-Apr-19 13:00N 52°57' E 004°46'0 0.0
2019-Apr-19 12:30N 52°57' E 004°46'0 0.0
2019-Apr-19 12:00N 52°57' E 004°46'1 1.8
2019-Apr-19 11:30N 52°57' E 004°47'0 0.2
2019-Apr-19 11:00N 52°57' E 004°47'0 0.3
2019-Apr-19 10:30N 52°57' E 004°47'1 2.3
2019-Apr-19 10:00N 52°58' E 004°47'3 5.7
2019-Apr-19 09:30N 53°01' E 004°49'2 4.4
2019-Apr-19 08:58N 53°02' E 004°52'0 0.0
2019-Apr-19 08:28N 53°02' E 004°52'0 0.0
2019-Apr-19 07:58N 53°02' E 004°52'0 0.1
2019-Apr-19 07:25N 53°02' E 004°52'0 0.0
2019-Apr-19 06:58N 53°02' E 004°52'0 0.0
2019-Apr-19 06:28N 53°02' E 004°52'0 0.0
2019-Apr-19 05:55N 53°02' E 004°52'0 0.0
2019-Apr-19 05:28N 53°02' E 004°52'0 0.0
2019-Apr-19 04:58N 53°02' E 004°52'0 0.0
2019-Apr-19 04:28N 53°02' E 004°52'0 0.0
2019-Apr-19 03:58N 53°02' E 004°52'0 0.0
2019-Apr-19 03:25N 53°02' E 004°52'0 0.0
2019-Apr-19 02:58N 53°02' E 004°52'0 0.1
2019-Apr-19 02:25N 53°02' E 004°52'0 0.0
2019-Apr-19 01:58N 53°02' E 004°52'0 0.0
2019-Apr-19 01:28N 53°02' E 004°52'0 0.0
2019-Apr-19 00:58N 53°02' E 004°52'0 0.0
2019-Apr-19 00:28N 53°02' E 004°52'0 0.0
2019-Apr-18 23:58N 53°02' E 004°52'0 0.0
2019-Apr-18 23:28N 53°02' E 004°52'0 0.0
2019-Apr-18 22:55N 53°02' E 004°52'0 0.0
2019-Apr-18 22:28N 53°02' E 004°52'0 0.0
2019-Apr-18 21:58N 53°02' E 004°52'0 0.0
2019-Apr-18 21:28N 53°02' E 004°52'0 0.0
2019-Apr-18 20:55N 53°02' E 004°52'0 0.0
2019-Apr-18 20:28N 53°02' E 004°52'0 0.0
2019-Apr-18 19:58N 53°02' E 004°52'2 4.7
2019-Apr-18 19:30N 53°01' E 004°49'4 7.1
2019-Apr-18 19:00N 52°59' E 004°45'3 6.6
2019-Apr-18 18:30N 52°56' E 004°41'1 2.1
2019-Apr-18 18:00N 52°55' E 004°40'1 2.5
2019-Apr-18 17:30N 52°54' E 004°39'2 4.2
2019-Apr-18 17:00N 52°52' E 004°40'3 6.9
2019-Apr-18 16:30N 52°49' E 004°38'2 3.1
2019-Apr-18 15:58N 52°50' E 004°36'3 5.5
2019-Apr-18 15:27N 52°52' E 004°33'2 4.8
2019-Apr-18 15:00N 52°53' E 004°30'16 5.4
2019-Apr-18 12:05N 52°38' E 004°22'1 5.9
2019-Apr-18 11:59N 52°38' E 004°22'4 7.5
2019-Apr-18 11:26N 52°34' E 004°23'4 7.8
2019-Apr-18 10:58N 52°30' E 004°25'3 5.3
2019-Apr-18 10:29N 52°28' E 004°25'2 4.8
2019-Apr-18 10:00N 52°25' E 004°25'2 3.7
2019-Apr-18 09:30N 52°24' E 004°24'2 4.6
2019-Apr-18 09:00N 52°21' E 004°23'2 4.3
2019-Apr-18 08:30N 52°19' E 004°22'2 4.7
2019-Apr-18 08:00N 52°17' E 004°21'3 5.0
2019-Apr-18 07:30N 52°15' E 004°19'3 5.2
2019-Apr-18 07:00N 52°12' E 004°18'2 4.7
2019-Apr-18 06:30N 52°10' E 004°17'2 3.3
2019-Apr-18 06:00N 52°08' E 004°16'2 3.8
2019-Apr-18 05:30N 52°07' E 004°14'2 3.8
2019-Apr-18 05:00N 52°06' E 004°12'2 4.0
2019-Apr-18 04:30N 52°04' E 004°10'3 5.0
2019-Apr-18 04:00N 52°03' E 004°06'3 5.8
2019-Apr-18 03:30N 52°02' E 004°02'3 5.4
2019-Apr-18 03:00N 51°60' E 003°59'3 6.2
2019-Apr-18 02:30N 51°58' E 003°55'3 6.0
2019-Apr-18 02:00N 51°58' E 003°50'4 6.7
2019-Apr-18 01:25N 51°57' E 003°44'12 6.9
2019-Apr-17 23:44N 51°54' E 003°25'33 5.2
2019-Apr-17 17:30N 51°52' E 002°33'4 5.3
2019-Apr-17 16:40N 51°52' E 002°26'2 5.7
2019-Apr-17 16:17N 51°52' E 002°22'2 5.9
2019-Apr-17 15:59N 51°52' E 002°19'3 6.1
2019-Apr-17 15:29N 51°52' E 002°14'3 6.3
2019-Apr-17 14:57N 51°52' E 002°09'3 6.8
2019-Apr-17 14:28N 51°51' E 002°04'3 7.1
2019-Apr-17 13:59N 51°50' E 001°59'3 7.4
2019-Apr-17 13:30N 51°48' E 001°54'3 6.2
2019-Apr-17 13:00N 51°48' E 001°49'3 6.1
2019-Apr-17 12:30N 51°49' E 001°44'3 6.6
2019-Apr-17 12:00N 51°50' E 001°39'3 6.8
2019-Apr-17 11:30N 51°51' E 001°33'3 5.8
2019-Apr-17 11:00N 51°52' E 001°29'3 5.5
2019-Apr-17 10:30N 51°55' E 001°27'3 5.5
2019-Apr-17 10:00N 51°55' E 001°22'3 5.1
2019-Apr-17 09:30N 51°56' E 001°18'2 4.7
2019-Apr-17 09:00N 51°58' E 001°17'2 3.9
2019-Apr-17 08:30N 51°60' E 001°15'2 4.3
2019-Apr-17 08:00N 52°00' E 001°12'2 4.3
2019-Apr-17 07:30N 52°02' E 001°09'1 1.9
2019-Apr-17 06:59N 52°03' E 001°10'0 0.0
2019-Apr-17 06:29N 52°03' E 001°10'0 0.0
2019-Apr-17 05:59N 52°03' E 001°10'0 0.0
2019-Apr-17 05:29N 52°03' E 001°10'0 0.0
2019-Apr-17 04:59N 52°03' E 001°10'0 0.0
2019-Apr-17 04:29N 52°03' E 001°10'0 0.0
2019-Apr-17 03:59N 52°03' E 001°10'0 0.0
2019-Apr-17 03:29N 52°03' E 001°10'0 0.0
2019-Apr-17 02:59N 52°03' E 001°10'0 0.0
2019-Apr-17 02:29N 52°03' E 001°10'0 0.0
2019-Apr-17 01:59N 52°03' E 001°10'0 0.0
2019-Apr-17 01:29N 52°03' E 001°10'0 0.0
2019-Apr-17 00:59N 52°03' E 001°10'0 0.0
2019-Apr-17 00:29N 52°03' E 001°10'0 0.0
2019-Apr-16 23:59N 52°03' E 001°10'0 0.0
2019-Apr-16 23:29N 52°03' E 001°10'0 0.0
2019-Apr-16 22:59N 52°03' E 001°10'0 0.0
2019-Apr-16 22:29N 52°03' E 001°10'0 0.0
2019-Apr-16 21:59N 52°03' E 001°10'0 0.0
2019-Apr-16 21:29N 52°03' E 001°10'0 0.0
2019-Apr-16 20:59N 52°03' E 001°10'0 0.0
2019-Apr-16 20:29N 52°03' E 001°10'0 0.0
2019-Apr-16 19:59N 52°03' E 001°10'0 0.0
2019-Apr-16 19:29N 52°03' E 001°10'0 0.0
2019-Apr-16 18:59N 52°03' E 001°10'0 0.0
2019-Apr-16 18:29N 52°03' E 001°10'0 0.0
2019-Apr-16 17:59N 52°03' E 001°10'0 0.0
2019-Apr-16 17:29N 52°03' E 001°10'0 0.0
2019-Apr-16 16:59N 52°03' E 001°10'0 0.0
2019-Apr-16 16:29N 52°03' E 001°10'0 0.0
2019-Apr-16 15:59N 52°03' E 001°10'0 0.0
2019-Apr-16 15:29N 52°03' E 001°10'0 0.0
2019-Apr-16 14:59N 52°03' E 001°10'0 0.0
2019-Apr-16 14:29N 52°03' E 001°10'0 0.0
2019-Apr-16 13:59N 52°03' E 001°10'0 0.0
2019-Apr-16 13:29N 52°03' E 001°10'0 0.0
2019-Apr-16 12:59N 52°03' E 001°10'0 0.0
2019-Apr-16 12:29N 52°03' E 001°10'0 0.0
2019-Apr-16 11:59N 52°03' E 001°10'0 0.0
2019-Apr-16 11:29N 52°03' E 001°10'0 0.0
2019-Apr-16 10:59N 52°03' E 001°10'0 0.1
2019-Apr-16 10:31N 52°03' E 001°10'1 1.3
2019-Apr-16 10:00N 52°02' E 001°09'2 4.2
2019-Apr-16 09:31N 52°01' E 001°11'3 5.4
2019-Apr-16 09:01N 51°60' E 001°15'3 5.7
2019-Apr-16 08:31N 51°57' E 001°18'3 5.3
2019-Apr-16 08:01N 51°56' E 001°22'3 6.0
2019-Apr-16 07:31N 51°57' E 001°26'3 6.4
2019-Apr-16 07:01N 51°57' E 001°32'3 6.1
2019-Apr-16 06:30N 51°58' E 001°36'4 8.0
2019-Apr-16 06:01N 52°00' E 001°42'4 7.0
2019-Apr-16 05:30N 52°02' E 001°47'4 7.7
2019-Apr-16 05:00N 52°03' E 001°53'4 7.8
2019-Apr-16 04:31N 52°05' E 001°58'4 7.7
2019-Apr-16 04:00N 52°06' E 002°04'3 6.9
2019-Apr-16 03:31N 52°05' E 002°09'6 6.8
2019-Apr-16 02:40N 52°04' E 002°19'1 7.0
2019-Apr-16 02:28N 52°04' E 002°21'64 6.6
2019-Apr-15 16:44N 52°34' E 003°54'28 4.2
2019-Apr-15 10:12N 52°52' E 004°29'1 6.3
2019-Apr-15 09:59N 52°53' E 004°30'2 4.9
2019-Apr-15 09:30N 52°54' E 004°34'2 4.9
2019-Apr-15 09:00N 52°52' E 004°37'4 8.3
2019-Apr-15 08:30N 52°55' E 004°40'4 9.0
2019-Apr-15 08:01N 52°59' E 004°45'2 4.1
2019-Apr-15 07:28N 52°59' E 004°48'0 0.0
2019-Apr-15 06:58N 52°59' E 004°48'0 0.0
2019-Apr-15 06:28N 52°59' E 004°48'0 0.0
2019-Apr-15 05:58N 52°59' E 004°48'0 0.0
2019-Apr-15 05:25N 52°59' E 004°48'  
Track history (hours):
 
Tides and Currents Weather Stations Pressure Air Temp Water Temp Dewpoint Dewpoint Depression Visibility Wind Speed Wind Dir Waves Ship Positions

Morgenster

Last reported at 2019-Apr-25 05:03 UTC. Time now 2019-Apr-25 11:50 UTC.
Position N 51°44' E 002°12'.

Length 38 m; draft 2.4 m.

Type: Sailing vessel. MMSI: 245136000.

Date/timePositionNaut miles runAvg speedWind from/ knotsBaromVisibWave heightAir tempDewpointWater temp
2019-Apr-25 05:03N 51°44' E 002°12'1 8.7
2019-Apr-25 04:58N 51°43' E 002°11'4 8.1
2019-Apr-25 04:28N 51°41' E 002°05'3 7.0
2019-Apr-25 04:00N 51°39' E 002°01'4 7.5
2019-Apr-25 03:30N 51°37' E 001°56'3 6.7
2019-Apr-25 03:00N 51°35' E 001°52'2 4.6
2019-Apr-25 02:30N 51°33' E 001°49'1 2.9
2019-Apr-25 02:00N 51°33' E 001°47'2 4.4
2019-Apr-25 01:30N 51°32' E 001°44'3 5.4
2019-Apr-25 01:00N 51°31' E 001°40'3 5.6
2019-Apr-25 00:30N 51°30' E 001°36'3 5.2
2019-Apr-25 00:00N 51°29' E 001°32'3 5.7
2019-Apr-24 23:30N 51°29' E 001°27'3 6.1
2019-Apr-24 23:00N 51°29' E 001°22'3 6.7
2019-Apr-24 22:30N 51°29' E 001°17'4 7.5
2019-Apr-24 22:00N 51°29' E 001°11'4 7.3
2019-Apr-24 21:30N 51°29' E 001°05'4 7.6
2019-Apr-24 21:00N 51°29' E 000°59'4 8.4
2019-Apr-24 20:30N 51°29' E 000°52'4 8.7
2019-Apr-24 20:00N 51°29' E 000°45'5 9.2
2019-Apr-24 19:30N 51°30' E 000°38'4 8.9
2019-Apr-24 19:01N 51°30' E 000°31'4 8.3
2019-Apr-24 18:31N 51°27' E 000°26'4 8.6
2019-Apr-24 18:01N 51°28' E 000°19'4 7.6
2019-Apr-24 17:30N 51°29' E 000°13'3 6.1
2019-Apr-24 17:00N 51°31' E 000°09'3 5.5
2019-Apr-24 16:30N 51°30' E 000°05'0 0.7
2019-Apr-24 15:54N 51°30' E 000°05'0 0.0
2019-Apr-24 15:27N 51°30' E 000°05'0 0.0
2019-Apr-24 14:57N 51°30' E 000°05'0 0.0
2019-Apr-24 14:18N 51°30' E 000°05'0 0.0
2019-Apr-24 14:00N 51°30' E 000°05'0 0.0
2019-Apr-24 13:24N 51°30' E 000°05'0 0.0
2019-Apr-24 12:48N 51°30' E 000°05'0 0.0
2019-Apr-24 12:18N 51°30' E 000°05'0 0.0
2019-Apr-24 11:54N 51°30' E 000°05'0 0.0
2019-Apr-24 11:30N 51°30' E 000°05'0 0.0
2019-Apr-24 10:54N 51°30' E 000°05'0 0.0
2019-Apr-24 10:30N 51°30' E 000°05'0 0.0
2019-Apr-24 09:57N 51°30' E 000°05'0 0.0
2019-Apr-24 09:30N 51°30' E 000°05'0 0.0
2019-Apr-24 08:57N 51°30' E 000°05'0 0.0
2019-Apr-24 08:24N 51°30' E 000°05'0 0.0
2019-Apr-24 07:57N 51°30' E 000°05'0 0.0
2019-Apr-24 07:30N 51°30' E 000°05'0 0.0
2019-Apr-24 07:00N 51°30' E 000°05'0 0.0
2019-Apr-24 06:27N 51°30' E 000°05'0 0.0
2019-Apr-24 05:57N 51°30' E 000°05'0 0.0
2019-Apr-24 05:18N 51°30' E 000°05'0 0.0
2019-Apr-24 05:00N 51°30' E 000°05'0 0.0
2019-Apr-24 04:30N 51°30' E 000°05'0 0.0
2019-Apr-24 04:00N 51°30' E 000°05'0 0.0
2019-Apr-24 03:27N 51°30' E 000°05'0 0.0
2019-Apr-24 02:54N 51°30' E 000°05'0 0.0
2019-Apr-24 02:30N 51°30' E 000°05'0 0.0
2019-Apr-24 02:00N 51°30' E 000°05'0 0.0
2019-Apr-24 01:27N 51°30' E 000°05'0 0.0
2019-Apr-24 01:00N 51°30' E 000°05'0 0.0
2019-Apr-24 00:24N 51°30' E 000°05'0 0.0
2019-Apr-24 00:00N 51°30' E 000°05'0 0.0
2019-Apr-23 23:30N 51°30' E 000°05'0 0.0
2019-Apr-23 22:57N 51°30' E 000°05'0 0.0
2019-Apr-23 22:24N 51°30' E 000°05'0 0.0
2019-Apr-23 21:57N 51°30' E 000°05'0 0.0
2019-Apr-23 21:30N 51°30' E 000°05'0 0.0
2019-Apr-23 21:00N 51°30' E 000°05'0 0.0
2019-Apr-23 20:27N 51°30' E 000°05'0 0.0
2019-Apr-23 19:57N 51°30' E 000°05'0 0.0
2019-Apr-23 19:30N 51°30' E 000°05'0 0.0
2019-Apr-23 19:00N 51°30' E 000°05'0 0.0
2019-Apr-23 18:24N 51°30' E 000°05'0 0.0
2019-Apr-23 17:54N 51°30' E 000°05'0 0.0
2019-Apr-23 17:24N 51°30' E 000°05'0 0.0
2019-Apr-23 17:00N 51°30' E 000°05'0 0.0
2019-Apr-23 16:21N 51°30' E 000°05'0 0.0
2019-Apr-23 16:00N 51°30' E 000°05'0 0.0
2019-Apr-23 15:30N 51°30' E 000°05'0 0.0
2019-Apr-23 15:00N 51°30' E 000°05'2 4.7
2019-Apr-23 14:30N 51°30' E 000°01'2 3.4
2019-Apr-23 14:00N 51°30' W 000°02'1 1.9
2019-Apr-23 13:31N 51°30' W 000°03'2 4.1
2019-Apr-23 12:58N 51°30' E 000°01'4 7.8
2019-Apr-23 12:30N 51°31' E 000°07'4 7.6
2019-Apr-23 12:00N 51°29' E 000°12'4 7.3
2019-Apr-23 11:30N 51°28' E 000°18'3 5.9
2019-Apr-23 11:00N 51°27' E 000°22'3 6.1
2019-Apr-23 10:30N 51°28' E 000°27'3 5.6
2019-Apr-23 10:00N 51°30' E 000°30'2 4.7
2019-Apr-23 09:30N 51°30' E 000°34'2 4.5
2019-Apr-23 09:00N 51°30' E 000°37'2 3.8
2019-Apr-23 08:30N 51°30' E 000°40'1 2.9
2019-Apr-23 08:00N 51°31' E 000°43'0 0.8
2019-Apr-23 07:30N 51°31' E 000°43'0 0.0
2019-Apr-23 07:00N 51°31' E 000°43'0 0.0
2019-Apr-23 06:30N 51°31' E 000°43'0 0.0
2019-Apr-23 06:00N 51°31' E 000°43'0 0.3
2019-Apr-23 05:30N 51°30' E 000°44'2 4.0
2019-Apr-23 05:00N 51°30' E 000°47'2 4.4
2019-Apr-23 04:30N 51°30' E 000°50'2 3.7
2019-Apr-23 04:00N 51°30' E 000°53'2 3.9
2019-Apr-23 03:30N 51°29' E 000°56'2 5.0
2019-Apr-23 03:00N 51°30' E 001°00'3 5.2
2019-Apr-23 02:30N 51°30' E 001°04'3 5.5
2019-Apr-23 02:00N 51°29' E 001°09'3 6.6
2019-Apr-23 01:30N 51°29' E 001°14'3 6.6
2019-Apr-23 01:00N 51°29' E 001°19'4 7.3
2019-Apr-23 00:30N 51°29' E 001°25'3 6.9
2019-Apr-23 00:00N 51°31' E 001°30'3 6.9
2019-Apr-22 23:30N 51°32' E 001°35'4 7.2
2019-Apr-22 23:00N 51°34' E 001°40'4 7.3
2019-Apr-22 22:30N 51°35' E 001°46'4 7.3
2019-Apr-22 22:01N 51°37' E 001°51'3 5.9
2019-Apr-22 21:31N 51°39' E 001°55'3 5.6
2019-Apr-22 21:00N 51°40' E 001°59'3 5.6
2019-Apr-22 20:31N 51°41' E 002°03'3 5.3
2019-Apr-22 20:00N 51°41' E 002°07'3 4.8
2019-Apr-22 19:22N 51°43' E 002°12'2 5.1
2019-Apr-22 18:58N 51°44' E 002°14'3 5.0
2019-Apr-22 18:27N 51°46' E 002°17'31 4.9
2019-Apr-22 12:00N 52°07' E 002°54'10 7.2
2019-Apr-22 10:40N 52°14' E 003°05'4 8.4
2019-Apr-22 10:13N 52°17' E 003°09'2 7.8
2019-Apr-22 09:57N 52°19' E 003°12'6 7.0
2019-Apr-22 09:04N 52°23' E 003°20'2 5.5
2019-Apr-22 08:39N 52°24' E 003°23'6 4.6
2019-Apr-22 07:23N 52°27' E 003°31'6 3.9
2019-Apr-22 05:53N 52°30' E 003°39'3 3.9
2019-Apr-22 05:14N 52°31' E 003°43'1 3.6
2019-Apr-22 04:53N 52°32' E 003°45'2 4.0
2019-Apr-22 04:25N 52°33' E 003°47'4 4.5
2019-Apr-22 03:29N 52°34' E 003°54'4 5.4
2019-Apr-22 02:41N 52°36' E 004°01'2 5.9
2019-Apr-22 02:17N 52°36' E 004°04'2 6.0
2019-Apr-22 02:00N 52°37' E 004°07'7 5.7
2019-Apr-22 00:48N 52°40' E 004°17'2 4.9
2019-Apr-22 00:28N 52°41' E 004°19'4 5.5
2019-Apr-21 23:49N 52°44' E 004°23'2 6.0
2019-Apr-21 23:30N 52°45' E 004°25'3 5.8
2019-Apr-21 23:01N 52°47' E 004°28'3 5.1
2019-Apr-21 22:31N 52°49' E 004°31'2 4.7
2019-Apr-21 22:00N 52°51' E 004°34'2 4.7
2019-Apr-21 21:30N 52°52' E 004°37'2 3.7
2019-Apr-21 21:00N 52°54' E 004°39'2 3.2
2019-Apr-21 20:31N 52°55' E 004°40'1 2.5
2019-Apr-21 20:01N 52°56' E 004°41'1 2.1
2019-Apr-21 19:31N 52°57' E 004°42'1 1.7
2019-Apr-21 19:01N 52°58' E 004°43'1 1.6
2019-Apr-21 18:31N 52°58' E 004°44'1 1.8
2019-Apr-21 18:01N 52°58' E 004°46'1 1.4
2019-Apr-21 17:31N 52°58' E 004°47'1 1.3
2019-Apr-21 17:00N 52°58' E 004°47'1 1.5
2019-Apr-21 16:30N 52°57' E 004°47'0 0.7
2019-Apr-21 16:01N 52°57' E 004°47'1 1.0
2019-Apr-21 15:29N 52°57' E 004°46'0 0.0
2019-Apr-21 14:59N 52°57' E 004°46'0 0.0
2019-Apr-21 14:29N 52°57' E 004°46'0 0.0
2019-Apr-21 13:59N 52°57' E 004°46'0 0.0
2019-Apr-21 13:29N 52°57' E 004°46'0 0.0
2019-Apr-21 12:59N 52°57' E 004°46'0 0.0
2019-Apr-21 12:29N 52°57' E 004°46'0 0.0
2019-Apr-21 11:59N 52°57' E 004°46'0 0.0
2019-Apr-21 11:29N 52°57' E 004°46'0 0.0
2019-Apr-21 10:59N 52°57' E 004°46'0 0.0
2019-Apr-21 10:29N 52°57' E 004°46'0 0.0
2019-Apr-21 09:59N 52°57' E 004°46'0 0.0
2019-Apr-21 09:29N 52°57' E 004°46'0 0.0
2019-Apr-21 08:59N 52°57' E 004°46'0 0.0
2019-Apr-21 08:29N 52°57' E 004°46'0 0.0
2019-Apr-21 07:59N 52°57' E 004°46'0 0.0
2019-Apr-21 07:29N 52°57' E 004°46'0 0.0
2019-Apr-21 06:59N 52°57' E 004°46'0 0.0
2019-Apr-21 06:29N 52°57' E 004°46'0 0.0
2019-Apr-21 05:59N 52°57' E 004°46'0 0.0
2019-Apr-21 05:29N 52°57' E 004°46'0 0.0
2019-Apr-21 04:59N 52°57' E 004°46'0 0.0
2019-Apr-21 04:29N 52°57' E 004°46'0 0.0
2019-Apr-21 03:59N 52°57' E 004°46'0 0.0
2019-Apr-21 03:29N 52°57' E 004°46'0 0.0
2019-Apr-21 02:59N 52°57' E 004°46'0 0.0
2019-Apr-21 02:29N 52°57' E 004°46'0 0.0
2019-Apr-21 01:56N 52°57' E 004°46'0 0.0
2019-Apr-21 01:29N 52°57' E 004°46'0 0.0
2019-Apr-21 00:59N 52°57' E 004°46'0 0.0
2019-Apr-21 00:29N 52°57' E 004°46'0 0.0
2019-Apr-20 23:59N 52°57' E 004°46'0 0.0
2019-Apr-20 23:29N 52°57' E 004°46'0 0.0
2019-Apr-20 22:59N 52°57' E 004°46'0 0.0
2019-Apr-20 22:29N 52°57' E 004°46'0 0.0
2019-Apr-20 21:59N 52°57' E 004°46'0 0.0
2019-Apr-20 21:29N 52°57' E 004°46'0 0.0
2019-Apr-20 20:56N 52°57' E 004°46'0 0.0
2019-Apr-20 20:29N 52°57' E 004°46'0 0.0
2019-Apr-20 19:59N 52°57' E 004°46'0 0.0
2019-Apr-20 19:29N 52°57' E 004°46'0 0.0
2019-Apr-20 18:59N 52°57' E 004°46'0 0.0
2019-Apr-20 18:29N 52°57' E 004°46'0 0.0
2019-Apr-20 17:59N 52°57' E 004°46'0 0.0
2019-Apr-20 17:29N 52°57' E 004°46'0 0.0
2019-Apr-20 16:59N 52°57' E 004°46'0 0.0
2019-Apr-20 16:29N 52°57' E 004°46'0 0.0
2019-Apr-20 15:59N 52°57' E 004°46'0 0.0
2019-Apr-20 15:29N 52°57' E 004°46'0 0.0
2019-Apr-20 14:59N 52°57' E 004°46'0 0.0
2019-Apr-20 14:29N 52°57' E 004°46'0 0.0
2019-Apr-20 14:00N 52°57' E 004°46'0 0.0
2019-Apr-20 13:30N 52°57' E 004°46'0 0.0
2019-Apr-20 13:01N 52°57' E 004°46'0 0.0
2019-Apr-20 12:30N 52°57' E 004°46'0 0.0
2019-Apr-20 12:00N 52°57' E 004°46'0 0.0
2019-Apr-20 11:30N 52°57' E 004°46'0 0.0
2019-Apr-20 11:00N 52°57' E 004°46'0 0.0
2019-Apr-20 10:30N 52°57' E 004°46'0 0.0
2019-Apr-20 10:00N 52°57' E 004°46'0 0.0
2019-Apr-20 09:30N 52°57' E 004°46'0 0.0
2019-Apr-20 09:00N 52°57' E 004°46'0 0.0
2019-Apr-20 08:30N 52°57' E 004°46'0 0.0
2019-Apr-20 08:01N 52°57' E 004°46'0 0.0
2019-Apr-20 07:30N 52°57' E 004°46'0 0.0
2019-Apr-20 07:00N 52°57' E 004°46'0 0.0
2019-Apr-20 06:30N 52°57' E 004°46'0 0.0
2019-Apr-20 06:00N 52°57' E 004°46'0 0.0
2019-Apr-20 05:30N 52°57' E 004°46'0 0.0
2019-Apr-20 05:00N 52°57' E 004°46'0 0.0
2019-Apr-20 04:30N 52°57' E 004°46'0 0.0
2019-Apr-20 04:01N 52°57' E 004°46'0 0.0
2019-Apr-20 03:30N 52°57' E 004°46'0 0.0
2019-Apr-20 03:00N 52°57' E 004°46'0 0.0
2019-Apr-20 02:31N 52°57' E 004°46'0 0.0
2019-Apr-20 02:00N 52°57' E 004°46'0 0.0
2019-Apr-20 01:30N 52°57' E 004°46'0 0.0
2019-Apr-20 01:00N 52°57' E 004°46'0 0.0
2019-Apr-20 00:30N 52°57' E 004°46'0 0.0
2019-Apr-20 00:00N 52°57' E 004°46'0 0.0
2019-Apr-19 23:31N 52°57' E 004°46'0 0.0
2019-Apr-19 23:00N 52°57' E 004°46'0 0.0
2019-Apr-19 22:30N 52°57' E 004°46'0 0.0
2019-Apr-19 22:00N 52°57' E 004°46'0 0.0
2019-Apr-19 21:30N 52°57' E 004°46'0 0.0
2019-Apr-19 21:01N 52°57' E 004°46'0 0.0
2019-Apr-19 20:30N 52°57' E 004°46'0 0.0
2019-Apr-19 20:00N 52°57' E 004°46'0 0.0
2019-Apr-19 19:30N 52°57' E 004°46'0 0.0
2019-Apr-19 19:00N 52°57' E 004°46'0 0.0
2019-Apr-19 18:31N 52°57' E 004°46'0 0.0
2019-Apr-19 18:00N 52°57' E 004°46'0 0.0
2019-Apr-19 17:30N 52°57' E 004°46'0 0.0
2019-Apr-19 17:00N 52°57' E 004°46'0 0.0
2019-Apr-19 16:30N 52°57' E 004°46'0 0.0
2019-Apr-19 16:00N 52°57' E 004°46'0 0.0
2019-Apr-19 15:31N 52°57' E 004°46'0 0.0
2019-Apr-19 15:00N 52°57' E 004°46'0 0.0
2019-Apr-19 14:30N 52°57' E 004°46'0 0.0
2019-Apr-19 14:00N 52°57' E 004°46'0 0.0
2019-Apr-19 13:30N 52°57' E 004°46'0 0.0
2019-Apr-19 13:00N 52°57' E 004°46'0 0.0
2019-Apr-19 12:30N 52°57' E 004°46'0 0.0
2019-Apr-19 12:00N 52°57' E 004°46'1 1.8
2019-Apr-19 11:30N 52°57' E 004°47'0 0.2
2019-Apr-19 11:00N 52°57' E 004°47'0 0.3
2019-Apr-19 10:30N 52°57' E 004°47'1 2.3
2019-Apr-19 10:00N 52°58' E 004°47'3 5.7
2019-Apr-19 09:30N 53°01' E 004°49'2 4.4
2019-Apr-19 08:58N 53°02' E 004°52'0 0.0
2019-Apr-19 08:28N 53°02' E 004°52'0 0.0
2019-Apr-19 07:58N 53°02' E 004°52'0 0.1
2019-Apr-19 07:25N 53°02' E 004°52'0 0.0
2019-Apr-19 06:58N 53°02' E 004°52'0 0.0
2019-Apr-19 06:28N 53°02' E 004°52'0 0.0
2019-Apr-19 05:55N 53°02' E 004°52'0 0.0
2019-Apr-19 05:28N 53°02' E 004°52'0 0.0
2019-Apr-19 04:58N 53°02' E 004°52'0 0.0
2019-Apr-19 04:28N 53°02' E 004°52'0 0.0
2019-Apr-19 03:58N 53°02' E 004°52'0 0.0
2019-Apr-19 03:25N 53°02' E 004°52'0 0.0
2019-Apr-19 02:58N 53°02' E 004°52'0 0.1
2019-Apr-19 02:25N 53°02' E 004°52'0 0.0
2019-Apr-19 01:58N 53°02' E 004°52'0 0.0
2019-Apr-19 01:28N 53°02' E 004°52'0 0.0
2019-Apr-19 00:58N 53°02' E 004°52'0 0.0
2019-Apr-19 00:28N 53°02' E 004°52'0 0.0
2019-Apr-18 23:58N 53°02' E 004°52'0 0.0
2019-Apr-18 23:28N 53°02' E 004°52'0 0.0
2019-Apr-18 22:55N 53°02' E 004°52'0 0.0
2019-Apr-18 22:28N 53°02' E 004°52'0 0.0
2019-Apr-18 21:58N 53°02' E 004°52'0 0.0
2019-Apr-18 21:28N 53°02' E 004°52'0 0.0
2019-Apr-18 20:55N 53°02' E 004°52'0 0.0
2019-Apr-18 20:28N 53°02' E 004°52'0 0.0
2019-Apr-18 19:58N 53°02' E 004°52'2 4.7
2019-Apr-18 19:30N 53°01' E 004°49'4 7.1
2019-Apr-18 19:00N 52°59' E 004°45'3 6.6
2019-Apr-18 18:30N 52°56' E 004°41'1 2.1
2019-Apr-18 18:00N 52°55' E 004°40'1 2.5
2019-Apr-18 17:30N 52°54' E 004°39'2 4.2
2019-Apr-18 17:00N 52°52' E 004°40'3 6.9
2019-Apr-18 16:30N 52°49' E 004°38'2 3.1
2019-Apr-18 15:58N 52°50' E 004°36'3 5.5
2019-Apr-18 15:27N 52°52' E 004°33'2 4.8
2019-Apr-18 15:00N 52°53' E 004°30'16 5.4
2019-Apr-18 12:05N 52°38' E 004°22'1 5.9
2019-Apr-18 11:59N 52°38' E 004°22'4 7.5
2019-Apr-18 11:26N 52°34' E 004°23'4 7.8
2019-Apr-18 10:58N 52°30' E 004°25'3 5.3
2019-Apr-18 10:29N 52°28' E 004°25'2 4.8
2019-Apr-18 10:00N 52°25' E 004°25'2 3.7
2019-Apr-18 09:30N 52°24' E 004°24'2 4.6
2019-Apr-18 09:00N 52°21' E 004°23'2 4.3
2019-Apr-18 08:30N 52°19' E 004°22'2 4.7
2019-Apr-18 08:00N 52°17' E 004°21'3 5.0
2019-Apr-18 07:30N 52°15' E 004°19'3 5.2
2019-Apr-18 07:00N 52°12' E 004°18'2 4.7
2019-Apr-18 06:30N 52°10' E 004°17'2 3.3
2019-Apr-18 06:00N 52°08' E 004°16'2 3.8
2019-Apr-18 05:30N 52°07' E 004°14'2 3.8
2019-Apr-18 05:00N 52°06' E 004°12'2 4.0
2019-Apr-18 04:30N 52°04' E 004°10'3 5.0
2019-Apr-18 04:00N 52°03' E 004°06'3 5.8
2019-Apr-18 03:30N 52°02' E 004°02'3 5.4
2019-Apr-18 03:00N 51°60' E 003°59'3 6.2
2019-Apr-18 02:30N 51°58' E 003°55'3 6.0
2019-Apr-18 02:00N 51°58' E 003°50'4 6.7
2019-Apr-18 01:25N 51°57' E 003°44'12 6.9
2019-Apr-17 23:44N 51°54' E 003°25'33 5.2
2019-Apr-17 17:30N 51°52' E 002°33'4 5.3
2019-Apr-17 16:40N 51°52' E 002°26'2 5.7
2019-Apr-17 16:17N 51°52' E 002°22'2 5.9
2019-Apr-17 15:59N 51°52' E 002°19'3 6.1
2019-Apr-17 15:29N 51°52' E 002°14'3 6.3
2019-Apr-17 14:57N 51°52' E 002°09'3 6.8
2019-Apr-17 14:28N 51°51' E 002°04'3 7.1
2019-Apr-17 13:59N 51°50' E 001°59'3 7.4
2019-Apr-17 13:30N 51°48' E 001°54'3 6.2
2019-Apr-17 13:00N 51°48' E 001°49'3 6.1
2019-Apr-17 12:30N 51°49' E 001°44'3 6.6
2019-Apr-17 12:00N 51°50' E 001°39'3 6.8
2019-Apr-17 11:30N 51°51' E 001°33'3 5.8
2019-Apr-17 11:00N 51°52' E 001°29'3 5.5
2019-Apr-17 10:30N 51°55' E 001°27'3 5.5
2019-Apr-17 10:00N 51°55' E 001°22'3 5.1
2019-Apr-17 09:30N 51°56' E 001°18'2 4.7
2019-Apr-17 09:00N 51°58' E 001°17'2 3.9
2019-Apr-17 08:30N 51°60' E 001°15'2 4.3
2019-Apr-17 08:00N 52°00' E 001°12'2 4.3
2019-Apr-17 07:30N 52°02' E 001°09'1 1.9
2019-Apr-17 06:59N 52°03' E 001°10'0 0.0
2019-Apr-17 06:29N 52°03' E 001°10'0 0.0
2019-Apr-17 05:59N 52°03' E 001°10'0 0.0
2019-Apr-17 05:29N 52°03' E 001°10'0 0.0
2019-Apr-17 04:59N 52°03' E 001°10'0 0.0
2019-Apr-17 04:29N 52°03' E 001°10'0 0.0
2019-Apr-17 03:59N 52°03' E 001°10'0 0.0
2019-Apr-17 03:29N 52°03' E 001°10'0 0.0
2019-Apr-17 02:59N 52°03' E 001°10'0 0.0
2019-Apr-17 02:29N 52°03' E 001°10'0 0.0
2019-Apr-17 01:59N 52°03' E 001°10'0 0.0
2019-Apr-17 01:29N 52°03' E 001°10'0 0.0
2019-Apr-17 00:59N 52°03' E 001°10'0 0.0
2019-Apr-17 00:29N 52°03' E 001°10'0 0.0
2019-Apr-16 23:59N 52°03' E 001°10'0 0.0
2019-Apr-16 23:29N 52°03' E 001°10'0 0.0
2019-Apr-16 22:59N 52°03' E 001°10'0 0.0
2019-Apr-16 22:29N 52°03' E 001°10'0 0.0
2019-Apr-16 21:59N 52°03' E 001°10'0 0.0
2019-Apr-16 21:29N 52°03' E 001°10'0 0.0
2019-Apr-16 20:59N 52°03' E 001°10'0 0.0
2019-Apr-16 20:29N 52°03' E 001°10'0 0.0
2019-Apr-16 19:59N 52°03' E 001°10'0 0.0
2019-Apr-16 19:29N 52°03' E 001°10'0 0.0
2019-Apr-16 18:59N 52°03' E 001°10'0 0.0
2019-Apr-16 18:29N 52°03' E 001°10'0 0.0
2019-Apr-16 17:59N 52°03' E 001°10'0 0.0
2019-Apr-16 17:29N 52°03' E 001°10'0 0.0
2019-Apr-16 16:59N 52°03' E 001°10'0 0.0
2019-Apr-16 16:29N 52°03' E 001°10'0 0.0
2019-Apr-16 15:59N 52°03' E 001°10'0 0.0
2019-Apr-16 15:29N 52°03' E 001°10'0 0.0
2019-Apr-16 14:59N 52°03' E 001°10'0 0.0
2019-Apr-16 14:29N 52°03' E 001°10'0 0.0
2019-Apr-16 13:59N 52°03' E 001°10'0 0.0
2019-Apr-16 13:29N 52°03' E 001°10'0 0.0
2019-Apr-16 12:59N 52°03' E 001°10'0 0.0
2019-Apr-16 12:29N 52°03' E 001°10'0 0.0
2019-Apr-16 11:59N 52°03' E 001°10'0 0.0
2019-Apr-16 11:29N 52°03' E 001°10'0 0.0
2019-Apr-16 10:59N 52°03' E 001°10'0 0.1
2019-Apr-16 10:31N 52°03' E 001°10'1 1.3
2019-Apr-16 10:00N 52°02' E 001°09'2 4.2
2019-Apr-16 09:31N 52°01' E 001°11'3 5.4
2019-Apr-16 09:01N 51°60' E 001°15'3 5.7
2019-Apr-16 08:31N 51°57' E 001°18'3 5.3
2019-Apr-16 08:01N 51°56' E 001°22'3 6.0
2019-Apr-16 07:31N 51°57' E 001°26'3 6.4
2019-Apr-16 07:01N 51°57' E 001°32'3 6.1
2019-Apr-16 06:30N 51°58' E 001°36'4 8.0
2019-Apr-16 06:01N 52°00' E 001°42'4 7.0
2019-Apr-16 05:30N 52°02' E 001°47'4 7.7
2019-Apr-16 05:00N 52°03' E 001°53'4 7.8
2019-Apr-16 04:31N 52°05' E 001°58'4 7.7
2019-Apr-16 04:00N 52°06' E 002°04'3 6.9
2019-Apr-16 03:31N 52°05' E 002°09'6 6.8
2019-Apr-16 02:40N 52°04' E 002°19'1 7.0
2019-Apr-16 02:28N 52°04' E 002°21'64 6.6
2019-Apr-15 16:44N 52°34' E 003°54'28 4.2
2019-Apr-15 10:12N 52°52' E 004°29'1 6.3
2019-Apr-15 09:59N 52°53' E 004°30'2 4.9
2019-Apr-15 09:30N 52°54' E 004°34'2 4.9
2019-Apr-15 09:00N 52°52' E 004°37'4 8.3
2019-Apr-15 08:30N 52°55' E 004°40'4 9.0
2019-Apr-15 08:01N 52°59' E 004°45'2 4.1
2019-Apr-15 07:28N 52°59' E 004°48'0 0.0
2019-Apr-15 06:58N 52°59' E 004°48'0 0.0
2019-Apr-15 06:28N 52°59' E 004°48'0 0.0
2019-Apr-15 05:58N 52°59' E 004°48'0 0.0
2019-Apr-15 05:25N 52°59' E 004°48'  

Dump ship's entire track history